BEL6PR EBBR-LHBP
Flight info
| Callsign | BEL6PR |
|---|---|
| Flight time | 1h 38m |
| Altitude | 37000 |
| Route | SOPOK2X SOPOK Y863 OGLOR DCT EMGOD DCT BOMBI DCT BOREP DCT ENITA DCT ETVIS DCT BUDEX DCT TOVKA DCT ANEXA ANEXA2H |
| Aircraft | A320/M-SDE3FGHIRWY/LB1 |
Departure
| Time | 2026-05-07 08:15 |
|---|---|
| Airport | Brussels Airport (EBBR) |
Arrival
| Time | 2026-05-07 09:54 |
|---|---|
| Airport | Budapest Liszt Ferenc International Airport (LHBP) |
| Time | Latitude | Longitude | Altitude | Speed | Heading |
|---|---|---|---|---|---|
| 2026-05-07 07:26 | 50.90266 | 4.48091 | 125 ft | 0 kts | 156° |
| 2026-05-07 08:02 | 50.90275 | 4.48084 | 122 ft | 3 kts | 156° |
| 2026-05-07 08:02 | 50.90294 | 4.48071 | 123 ft | 3 kts | 156° |
| 2026-05-07 08:03 | 50.90311 | 4.48059 | 119 ft | 2 kts | 156° |
| 2026-05-07 08:03 | 50.90327 | 4.48046 | 119 ft | 3 kts | 129° |
| 2026-05-07 08:03 | 50.90335 | 4.48020 | 120 ft | 3 kts | 89° |
| 2026-05-07 08:03 | 50.90332 | 4.47989 | 119 ft | 3 kts | 69° |
| 2026-05-07 08:04 | 50.90324 | 4.47960 | 124 ft | 3 kts | 63° |
| 2026-05-07 08:04 | 50.90317 | 4.47939 | 119 ft | 1 kts | 65° |
| 2026-05-07 08:04 | 50.90317 | 4.47938 | 119 ft | 0 kts | 65° |
| 2026-05-07 08:06 | 50.90329 | 4.47981 | 119 ft | 8 kts | 65° |
| 2026-05-07 08:06 | 50.90381 | 4.48039 | 123 ft | 11 kts | 352° |
| 2026-05-07 08:06 | 50.90444 | 4.48103 | 123 ft | 13 kts | 66° |
| 2026-05-07 08:07 | 50.90482 | 4.48234 | 119 ft | 14 kts | 66° |
| 2026-05-07 08:07 | 50.90530 | 4.48398 | 118 ft | 19 kts | 64° |
| 2026-05-07 08:07 | 50.90588 | 4.48602 | 113 ft | 22 kts | 66° |
| 2026-05-07 08:07 | 50.90658 | 4.48846 | 112 ft | 25 kts | 65° |
| 2026-05-07 08:08 | 50.90734 | 4.49108 | 113 ft | 27 kts | 65° |
| 2026-05-07 08:08 | 50.90811 | 4.49373 | 113 ft | 26 kts | 65° |
| 2026-05-07 08:08 | 50.90871 | 4.49583 | 111 ft | 18 kts | 66° |
| 2026-05-07 08:08 | 50.90891 | 4.49740 | 112 ft | 11 kts | 133° |
| 2026-05-07 08:09 | 50.90845 | 4.49751 | 116 ft | 4 kts | 191° |
| 2026-05-07 08:09 | 50.90814 | 4.49739 | 118 ft | 6 kts | 194° |
| 2026-05-07 08:09 | 50.90760 | 4.49717 | 121 ft | 11 kts | 195° |
| 2026-05-07 08:09 | 50.90658 | 4.49674 | 120 ft | 18 kts | 194° |
| 2026-05-07 08:10 | 50.90545 | 4.49629 | 129 ft | 15 kts | 194° |
| 2026-05-07 08:10 | 50.90456 | 4.49592 | 133 ft | 14 kts | 194° |
| 2026-05-07 08:10 | 50.90347 | 4.49548 | 137 ft | 17 kts | 195° |
| 2026-05-07 08:10 | 50.90243 | 4.49505 | 141 ft | 14 kts | 195° |
| 2026-05-07 08:11 | 50.90148 | 4.49466 | 144 ft | 16 kts | 194° |
| 2026-05-07 08:11 | 50.90030 | 4.49418 | 152 ft | 19 kts | 194° |
| 2026-05-07 08:11 | 50.89901 | 4.49365 | 157 ft | 19 kts | 194° |
| 2026-05-07 08:11 | 50.89776 | 4.49315 | 161 ft | 18 kts | 194° |
| 2026-05-07 08:12 | 50.89652 | 4.49265 | 162 ft | 18 kts | 195° |
| 2026-05-07 08:12 | 50.89561 | 4.49187 | 164 ft | 14 kts | 200° |
| 2026-05-07 08:12 | 50.89455 | 4.49145 | 164 ft | 17 kts | 194° |
| 2026-05-07 08:12 | 50.89335 | 4.49094 | 164 ft | 19 kts | 194° |
| 2026-05-07 08:13 | 50.89196 | 4.49039 | 167 ft | 22 kts | 194° |
| 2026-05-07 08:13 | 50.89053 | 4.48980 | 174 ft | 20 kts | 195° |
| 2026-05-07 08:13 | 50.88916 | 4.48924 | 177 ft | 20 kts | 194° |
| 2026-05-07 08:13 | 50.88804 | 4.48878 | 198 ft | 9 kts | 190° |
| 2026-05-07 08:14 | 50.88757 | 4.48900 | 199 ft | 8 kts | 133° |
| 2026-05-07 08:14 | 50.88736 | 4.48999 | 195 ft | 13 kts | 105° |
| 2026-05-07 08:14 | 50.88745 | 4.49161 | 191 ft | 17 kts | 36° |
| 2026-05-07 08:14 | 50.88863 | 4.49214 | 184 ft | 31 kts | 14° |
| 2026-05-07 08:15 | 50.89324 | 4.49399 | 169 ft | 101 kts | 14° |
| 2026-05-07 08:15 | 50.90191 | 4.49750 | 143 ft | 155 kts | 14° |
| 2026-05-07 08:15 | 50.91289 | 4.50197 | 589 ft | 164 kts | 15° |
| 2026-05-07 08:15 | 50.92369 | 4.50767 | 1289 ft | 164 kts | 23° |
| 2026-05-07 08:16 | 50.93329 | 4.51711 | 1960 ft | 164 kts | 49° |
| 2026-05-07 08:16 | 50.93890 | 4.53259 | 2604 ft | 161 kts | 70° |
| 2026-05-07 08:16 | 50.94239 | 4.54919 | 3275 ft | 156 kts | 71° |
| 2026-05-07 08:16 | 50.94479 | 4.56570 | 3857 ft | 152 kts | 81° |
| 2026-05-07 08:17 | 50.94538 | 4.58285 | 4267 ft | 161 kts | 90° |
| 2026-05-07 08:17 | 50.94411 | 4.60084 | 4672 ft | 168 kts | 99° |
| 2026-05-07 08:17 | 50.94086 | 4.61903 | 5116 ft | 174 kts | 109° |
| 2026-05-07 08:17 | 50.93555 | 4.63660 | 5582 ft | 179 kts | 120° |
| 2026-05-07 08:18 | 50.92802 | 4.65248 | 6059 ft | 182 kts | 135° |
| 2026-05-07 08:18 | 50.91794 | 4.66471 | 6533 ft | 184 kts | 155° |
| 2026-05-07 08:18 | 50.90557 | 4.66976 | 6980 ft | 185 kts | 178° |
| 2026-05-07 08:18 | 50.89277 | 4.66869 | 7462 ft | 184 kts | 190° |
| 2026-05-07 08:19 | 50.88041 | 4.66366 | 7945 ft | 184 kts | 199° |
| 2026-05-07 08:19 | 50.86838 | 4.65680 | 8404 ft | 184 kts | 202° |
| 2026-05-07 08:19 | 50.85663 | 4.64881 | 8879 ft | 184 kts | 205° |
| 2026-05-07 08:19 | 50.84478 | 4.64124 | 9349 ft | 184 kts | 199° |
| 2026-05-07 08:20 | 50.83250 | 4.63585 | 9810 ft | 183 kts | 192° |
| 2026-05-07 08:20 | 50.81983 | 4.63439 | 10228 ft | 183 kts | 180° |
| 2026-05-07 08:20 | 50.80676 | 4.63531 | 10431 ft | 197 kts | 176° |
| 2026-05-07 08:20 | 50.79250 | 4.63731 | 10567 ft | 216 kts | 176° |
| 2026-05-07 08:21 | 50.77669 | 4.63904 | 10686 ft | 239 kts | 177° |
| 2026-05-07 08:21 | 50.75950 | 4.64070 | 10873 ft | 262 kts | 178° |
| 2026-05-07 08:21 | 50.74056 | 4.64332 | 11082 ft | 285 kts | 169° |
| 2026-05-07 08:21 | 50.72126 | 4.65460 | 11276 ft | 309 kts | 149° |
| 2026-05-07 08:22 | 50.70441 | 4.67745 | 11442 ft | 333 kts | 128° |
| 2026-05-07 08:22 | 50.69374 | 4.71054 | 11827 ft | 346 kts | 105° |
| 2026-05-07 08:22 | 50.69178 | 4.74845 | 12440 ft | 351 kts | 82° |
| 2026-05-07 08:22 | 50.69619 | 4.78647 | 13093 ft | 355 kts | 81° |
| 2026-05-07 08:23 | 50.69752 | 4.82557 | 13753 ft | 360 kts | 94° |
| 2026-05-07 08:23 | 50.69254 | 4.86444 | 14332 ft | 363 kts | 110° |
| 2026-05-07 08:23 | 50.68361 | 4.90128 | 14927 ft | 366 kts | 112° |
| 2026-05-07 08:23 | 50.67411 | 4.93863 | 15530 ft | 369 kts | 112° |
| 2026-05-07 08:24 | 50.66435 | 4.97617 | 16127 ft | 372 kts | 113° |
| 2026-05-07 08:24 | 50.65443 | 5.01401 | 16719 ft | 375 kts | 113° |
| 2026-05-07 08:24 | 50.64443 | 5.05222 | 17306 ft | 378 kts | 112° |
| 2026-05-07 08:24 | 50.63440 | 5.09068 | 17906 ft | 381 kts | 112° |
| 2026-05-07 08:25 | 50.62433 | 5.12940 | 18460 ft | 384 kts | 112° |
| 2026-05-07 08:25 | 50.61418 | 5.16853 | 18968 ft | 387 kts | 112° |
| 2026-05-07 08:25 | 50.60395 | 5.20792 | 19460 ft | 390 kts | 112° |
| 2026-05-07 08:25 | 50.59363 | 5.24770 | 19978 ft | 393 kts | 113° |
| 2026-05-07 08:26 | 50.56296 | 5.31855 | 20953 ft | 397 kts | 136° |
| 2026-05-07 08:26 | 50.54339 | 5.34867 | 21449 ft | 400 kts | 137° |
| 2026-05-07 08:26 | 50.52317 | 5.37895 | 21941 ft | 403 kts | 137° |
| 2026-05-07 08:27 | 50.50266 | 5.40915 | 22431 ft | 406 kts | 138° |
| 2026-05-07 08:27 | 50.48194 | 5.43946 | 22897 ft | 409 kts | 138° |
| 2026-05-07 08:27 | 50.46100 | 5.46997 | 23356 ft | 412 kts | 138° |
| 2026-05-07 08:27 | 50.43998 | 5.50063 | 23769 ft | 415 kts | 138° |
| 2026-05-07 08:28 | 50.41884 | 5.53155 | 24147 ft | 417 kts | 137° |
| 2026-05-07 08:28 | 50.39753 | 5.56278 | 24525 ft | 419 kts | 137° |
| 2026-05-07 08:28 | 50.37620 | 5.59402 | 24893 ft | 421 kts | 137° |
| 2026-05-07 08:28 | 50.35471 | 5.62546 | 25262 ft | 423 kts | 137° |
| 2026-05-07 08:29 | 50.33315 | 5.65693 | 25611 ft | 425 kts | 137° |
| 2026-05-07 08:29 | 50.31147 | 5.68849 | 25964 ft | 427 kts | 137° |
| 2026-05-07 08:29 | 50.28967 | 5.72027 | 26304 ft | 429 kts | 136° |
| 2026-05-07 08:29 | 50.26978 | 5.75514 | 26631 ft | 431 kts | 126° |
| 2026-05-07 08:30 | 50.25381 | 5.79489 | 26958 ft | 433 kts | 116° |
| 2026-05-07 08:30 | 50.24220 | 5.83828 | 27275 ft | 435 kts | 107° |
| 2026-05-07 08:30 | 50.23428 | 5.88400 | 27592 ft | 436 kts | 104° |
| 2026-05-07 08:30 | 50.22664 | 5.92993 | 27919 ft | 438 kts | 104° |
| 2026-05-07 08:31 | 50.21886 | 5.97609 | 28231 ft | 440 kts | 104° |
| 2026-05-07 08:31 | 50.21098 | 6.02237 | 28537 ft | 442 kts | 104° |
| 2026-05-07 08:31 | 50.20301 | 6.06872 | 28834 ft | 443 kts | 104° |
| 2026-05-07 08:31 | 50.19771 | 6.09956 | 29026 ft | 444 kts | 104° |
| 2026-05-07 08:32 | 50.18983 | 6.14628 | 29294 ft | 446 kts | 102° |
| 2026-05-07 08:32 | 50.18516 | 6.19410 | 29593 ft | 446 kts | 92° |
| 2026-05-07 08:32 | 50.18612 | 6.25806 | 29941 ft | 447 kts | 83° |
| 2026-05-07 08:32 | 50.18929 | 6.30637 | 30162 ft | 448 kts | 83° |
| 2026-05-07 08:33 | 50.19240 | 6.35488 | 30365 ft | 450 kts | 83° |
| 2026-05-07 08:33 | 50.19446 | 6.38779 | 30486 ft | 451 kts | 83° |
| 2026-05-07 08:33 | 50.19741 | 6.43591 | 30674 ft | 453 kts | 84° |
| 2026-05-07 08:33 | 50.20037 | 6.48485 | 30850 ft | 454 kts | 84° |
| 2026-05-07 08:34 | 50.20331 | 6.53404 | 31034 ft | 456 kts | 84° |
| 2026-05-07 08:34 | 50.20623 | 6.58347 | 31199 ft | 458 kts | 84° |
| 2026-05-07 08:34 | 50.20905 | 6.63298 | 31347 ft | 459 kts | 86° |
| 2026-05-07 08:34 | 50.20909 | 6.68294 | 31549 ft | 460 kts | 91° |
| 2026-05-07 08:35 | 50.20822 | 6.73284 | 31778 ft | 460 kts | 91° |
| 2026-05-07 08:35 | 50.20734 | 6.78275 | 32003 ft | 460 kts | 91° |
| 2026-05-07 08:35 | 50.20645 | 6.83261 | 32209 ft | 460 kts | 91° |
| 2026-05-07 08:35 | 50.20556 | 6.88261 | 32417 ft | 460 kts | 91° |
| 2026-05-07 08:36 | 50.20465 | 6.93254 | 32617 ft | 460 kts | 91° |
| 2026-05-07 08:36 | 50.20371 | 6.98242 | 32841 ft | 460 kts | 91° |
| 2026-05-07 08:36 | 50.20274 | 7.03232 | 33050 ft | 460 kts | 91° |
| 2026-05-07 08:36 | 50.20174 | 7.08221 | 33248 ft | 460 kts | 91° |
| 2026-05-07 08:37 | 50.20070 | 7.13207 | 33459 ft | 460 kts | 91° |
| 2026-05-07 08:37 | 50.19961 | 7.18203 | 33654 ft | 460 kts | 91° |
| 2026-05-07 08:37 | 50.19849 | 7.23195 | 33869 ft | 460 kts | 91° |
| 2026-05-07 08:37 | 50.19737 | 7.28181 | 34055 ft | 460 kts | 92° |
| 2026-05-07 08:38 | 50.19587 | 7.33178 | 34227 ft | 461 kts | 96° |
| 2026-05-07 08:38 | 50.19171 | 7.38133 | 34374 ft | 461 kts | 98° |
| 2026-05-07 08:38 | 50.18731 | 7.43031 | 34530 ft | 462 kts | 98° |
| 2026-05-07 08:38 | 50.18288 | 7.47989 | 34692 ft | 462 kts | 98° |
| 2026-05-07 08:39 | 50.17845 | 7.52951 | 34864 ft | 462 kts | 98° |
| 2026-05-07 08:39 | 50.17398 | 7.57929 | 35019 ft | 463 kts | 98° |
| 2026-05-07 08:39 | 50.16950 | 7.62897 | 35177 ft | 463 kts | 98° |
| 2026-05-07 08:39 | 50.16499 | 7.67869 | 35321 ft | 463 kts | 98° |
| 2026-05-07 08:40 | 50.16044 | 7.72843 | 35472 ft | 463 kts | 98° |
| 2026-05-07 08:40 | 50.15583 | 7.77814 | 35622 ft | 463 kts | 99° |
| 2026-05-07 08:40 | 50.15119 | 7.82790 | 35776 ft | 463 kts | 99° |
| 2026-05-07 08:40 | 50.14653 | 7.87767 | 35927 ft | 463 kts | 99° |
| 2026-05-07 08:41 | 50.14190 | 7.92733 | 36072 ft | 463 kts | 99° |
| 2026-05-07 08:41 | 50.13726 | 7.97706 | 36204 ft | 463 kts | 99° |
| 2026-05-07 08:41 | 50.13261 | 8.02675 | 36347 ft | 463 kts | 99° |
| 2026-05-07 08:41 | 50.12792 | 8.07637 | 36479 ft | 463 kts | 99° |
| 2026-05-07 08:42 | 50.12319 | 8.12607 | 36609 ft | 463 kts | 99° |
| 2026-05-07 08:42 | 50.11844 | 8.17568 | 36736 ft | 463 kts | 99° |
| 2026-05-07 08:42 | 50.11366 | 8.22522 | 36865 ft | 462 kts | 99° |
| 2026-05-07 08:42 | 50.10884 | 8.27476 | 36999 ft | 462 kts | 99° |
| 2026-05-07 08:43 | 50.09918 | 8.37382 | 37017 ft | 462 kts | 99° |
| 2026-05-07 08:43 | 50.08948 | 8.47294 | 37001 ft | 462 kts | 99° |
| 2026-05-07 08:44 | 50.07972 | 8.57177 | 37002 ft | 463 kts | 99° |
| 2026-05-07 08:44 | 50.06982 | 8.67089 | 37000 ft | 463 kts | 100° |
| 2026-05-07 08:45 | 50.05983 | 8.76920 | 36999 ft | 463 kts | 100° |
| 2026-05-07 08:45 | 50.05381 | 8.86902 | 37000 ft | 464 kts | 95° |
| 2026-05-07 08:46 | 50.04958 | 8.96916 | 37001 ft | 464 kts | 95° |
| 2026-05-07 08:46 | 50.04514 | 9.06927 | 37002 ft | 464 kts | 95° |
| 2026-05-07 08:47 | 50.04063 | 9.16946 | 36996 ft | 464 kts | 95° |
| 2026-05-07 08:47 | 50.03611 | 9.26964 | 36994 ft | 464 kts | 95° |
| 2026-05-07 08:48 | 50.03150 | 9.36986 | 36995 ft | 465 kts | 95° |
| 2026-05-07 08:48 | 50.02672 | 9.47015 | 36987 ft | 465 kts | 95° |
| 2026-05-07 08:49 | 50.02191 | 9.56963 | 36988 ft | 465 kts | 95° |
| 2026-05-07 08:49 | 50.01707 | 9.66992 | 36985 ft | 465 kts | 95° |
| 2026-05-07 08:50 | 50.01215 | 9.77022 | 36979 ft | 465 kts | 96° |
| 2026-05-07 08:50 | 50.00708 | 9.87049 | 36981 ft | 465 kts | 96° |
| 2026-05-07 08:51 | 50.00188 | 9.97066 | 36981 ft | 465 kts | 96° |
| 2026-05-07 08:51 | 49.99661 | 10.07091 | 36984 ft | 466 kts | 96° |
| 2026-05-07 08:52 | 49.99128 | 10.17114 | 36981 ft | 465 kts | 96° |
| 2026-05-07 08:52 | 49.98582 | 10.27146 | 36984 ft | 465 kts | 96° |
| 2026-05-07 08:53 | 49.98030 | 10.37158 | 36975 ft | 465 kts | 96° |
| 2026-05-07 08:53 | 49.97473 | 10.47106 | 36977 ft | 465 kts | 96° |
| 2026-05-07 08:54 | 49.96902 | 10.57125 | 36974 ft | 465 kts | 97° |
| 2026-05-07 08:54 | 49.96008 | 10.67070 | 36971 ft | 464 kts | 104° |
| 2026-05-07 08:55 | 49.94684 | 10.76871 | 36966 ft | 464 kts | 104° |
| 2026-05-07 08:55 | 49.93358 | 10.86620 | 36959 ft | 464 kts | 104° |
| 2026-05-07 08:56 | 49.92016 | 10.96427 | 36953 ft | 464 kts | 104° |
| 2026-05-07 08:56 | 49.90664 | 11.06223 | 36953 ft | 464 kts | 104° |
| 2026-05-07 08:57 | 49.89306 | 11.16033 | 36958 ft | 465 kts | 104° |
| 2026-05-07 08:57 | 49.87945 | 11.25822 | 36950 ft | 465 kts | 104° |
| 2026-05-07 08:58 | 49.86566 | 11.35630 | 36944 ft | 465 kts | 104° |
| 2026-05-07 08:58 | 49.85191 | 11.45356 | 36955 ft | 465 kts | 105° |
| 2026-05-07 08:59 | 49.83792 | 11.55140 | 36947 ft | 465 kts | 105° |
| 2026-05-07 08:59 | 49.82387 | 11.64922 | 36939 ft | 466 kts | 105° |
| 2026-05-07 09:00 | 49.80978 | 11.74711 | 36947 ft | 466 kts | 105° |
| 2026-05-07 09:00 | 49.79560 | 11.84502 | 36944 ft | 466 kts | 105° |
| 2026-05-07 09:01 | 49.78125 | 11.94298 | 36936 ft | 466 kts | 105° |
| 2026-05-07 09:01 | 49.76687 | 12.04078 | 36930 ft | 467 kts | 106° |
| 2026-05-07 09:02 | 49.75240 | 12.13874 | 36937 ft | 467 kts | 106° |
| 2026-05-07 09:02 | 49.73783 | 12.23661 | 36941 ft | 467 kts | 106° |
| 2026-05-07 09:03 | 49.72329 | 12.33370 | 36944 ft | 467 kts | 106° |
| 2026-05-07 09:03 | 49.70851 | 12.43150 | 36942 ft | 467 kts | 106° |
| 2026-05-07 09:04 | 49.69389 | 12.52932 | 36943 ft | 468 kts | 105° |
| 2026-05-07 09:04 | 49.68020 | 12.62764 | 36942 ft | 468 kts | 105° |
| 2026-05-07 09:05 | 49.66673 | 12.72599 | 36942 ft | 468 kts | 105° |
| 2026-05-07 09:05 | 49.64823 | 12.82152 | 36936 ft | 461 kts | 120° |
| 2026-05-07 09:06 | 49.61439 | 12.90440 | 36935 ft | 455 kts | 129° |
| 2026-05-07 09:06 | 49.57798 | 12.98443 | 36933 ft | 456 kts | 129° |
| 2026-05-07 09:07 | 49.54187 | 13.06410 | 36930 ft | 457 kts | 129° |
| 2026-05-07 09:07 | 49.50545 | 13.14417 | 36933 ft | 457 kts | 129° |
| 2026-05-07 09:08 | 49.46881 | 13.22415 | 36934 ft | 457 kts | 129° |
| 2026-05-07 09:08 | 49.43211 | 13.30397 | 36934 ft | 457 kts | 129° |
| 2026-05-07 09:09 | 49.39540 | 13.38377 | 36940 ft | 458 kts | 130° |
| 2026-05-07 09:09 | 49.35860 | 13.46360 | 36951 ft | 458 kts | 130° |
| 2026-05-07 09:10 | 49.32201 | 13.54256 | 36946 ft | 457 kts | 130° |
| 2026-05-07 09:10 | 49.28511 | 13.62196 | 36961 ft | 457 kts | 130° |
| 2026-05-07 09:11 | 49.24822 | 13.70116 | 36967 ft | 457 kts | 130° |
| 2026-05-07 09:11 | 49.21129 | 13.78019 | 36969 ft | 456 kts | 130° |
| 2026-05-07 09:12 | 49.17438 | 13.85894 | 36970 ft | 455 kts | 130° |
| 2026-05-07 09:12 | 49.13747 | 13.93744 | 36972 ft | 455 kts | 131° |
| 2026-05-07 09:13 | 49.10045 | 14.01573 | 36972 ft | 454 kts | 131° |
| 2026-05-07 09:13 | 49.06351 | 14.09365 | 36975 ft | 453 kts | 131° |
| 2026-05-07 09:14 | 49.02684 | 14.17102 | 36977 ft | 453 kts | 131° |
| 2026-05-07 09:14 | 48.98988 | 14.24879 | 36973 ft | 453 kts | 131° |
| 2026-05-07 09:15 | 48.95359 | 14.32726 | 36966 ft | 456 kts | 125° |
| 2026-05-07 09:15 | 48.92824 | 14.41663 | 36970 ft | 463 kts | 116° |
| 2026-05-07 09:16 | 48.90558 | 14.50819 | 36968 ft | 463 kts | 116° |
| 2026-05-07 09:16 | 48.88282 | 14.59974 | 36972 ft | 463 kts | 116° |
| 2026-05-07 09:17 | 48.85993 | 14.69096 | 36968 ft | 462 kts | 116° |
| 2026-05-07 09:17 | 48.83694 | 14.78203 | 36973 ft | 462 kts | 116° |
| 2026-05-07 09:18 | 48.81389 | 14.87306 | 36973 ft | 461 kts | 116° |
| 2026-05-07 09:18 | 48.79104 | 14.96330 | 36967 ft | 461 kts | 116° |
| 2026-05-07 09:19 | 48.76797 | 15.05395 | 36974 ft | 461 kts | 116° |
| 2026-05-07 09:19 | 48.74482 | 15.14444 | 36972 ft | 460 kts | 116° |
| 2026-05-07 09:20 | 48.72164 | 15.23474 | 36967 ft | 460 kts | 117° |
| 2026-05-07 09:20 | 48.69838 | 15.32510 | 36972 ft | 460 kts | 117° |
| 2026-05-07 09:21 | 48.67512 | 15.41526 | 36971 ft | 459 kts | 117° |
| 2026-05-07 09:21 | 48.65182 | 15.50506 | 36977 ft | 459 kts | 117° |
| 2026-05-07 09:22 | 48.62834 | 15.59478 | 36976 ft | 458 kts | 117° |
| 2026-05-07 09:22 | 48.60485 | 15.68422 | 36970 ft | 458 kts | 117° |
| 2026-05-07 09:23 | 48.58530 | 15.75860 | 36970 ft | 458 kts | 117° |
| 2026-05-07 09:23 | 48.55794 | 15.86242 | 36968 ft | 458 kts | 117° |
| 2026-05-07 09:24 | 48.53430 | 15.95168 | 36965 ft | 458 kts | 117° |
| 2026-05-07 09:24 | 48.51445 | 16.02648 | 36966 ft | 458 kts | 117° |
| 2026-05-07 09:25 | 48.49079 | 16.11502 | 36963 ft | 458 kts | 118° |
| 2026-05-07 09:25 | 48.46692 | 16.20415 | 36960 ft | 458 kts | 118° |
| 2026-05-07 09:26 | 48.44300 | 16.29330 | 36959 ft | 459 kts | 118° |
| 2026-05-07 09:26 | 48.41900 | 16.38231 | 36959 ft | 459 kts | 118° |
| 2026-05-07 09:27 | 48.39481 | 16.47153 | 36958 ft | 460 kts | 118° |
| 2026-05-07 09:28 | 48.35857 | 16.60468 | 36968 ft | 461 kts | 118° |
| 2026-05-07 09:28 | 48.33417 | 16.69381 | 36969 ft | 461 kts | 118° |
| 2026-05-07 09:29 | 48.30961 | 16.78304 | 36970 ft | 462 kts | 118° |
| 2026-05-07 09:29 | 48.28503 | 16.87229 | 36978 ft | 462 kts | 118° |
| 2026-05-07 09:30 | 48.26048 | 16.96178 | 36994 ft | 463 kts | 117° |
| 2026-05-07 09:30 | 48.23711 | 17.05193 | 36999 ft | 464 kts | 116° |
| 2026-05-07 09:31 | 48.21433 | 17.14190 | 37002 ft | 464 kts | 116° |
| 2026-05-07 09:31 | 48.19109 | 17.23207 | 36998 ft | 464 kts | 117° |
| 2026-05-07 09:32 | 48.16748 | 17.32206 | 36999 ft | 463 kts | 117° |
| 2026-05-07 09:32 | 48.14380 | 17.41178 | 36992 ft | 463 kts | 117° |
| 2026-05-07 09:33 | 48.12015 | 17.50148 | 36984 ft | 463 kts | 117° |
| 2026-05-07 09:33 | 48.09656 | 17.59102 | 36799 ft | 464 kts | 117° |
| 2026-05-07 09:33 | 48.08465 | 17.63594 | 36263 ft | 463 kts | 117° |
| 2026-05-07 09:34 | 48.07277 | 17.68067 | 35749 ft | 462 kts | 117° |
| 2026-05-07 09:34 | 48.06092 | 17.72522 | 35241 ft | 462 kts | 118° |
| 2026-05-07 09:34 | 48.04902 | 17.76987 | 34692 ft | 462 kts | 118° |
| 2026-05-07 09:34 | 48.03707 | 17.81447 | 34107 ft | 463 kts | 118° |
| 2026-05-07 09:35 | 48.02512 | 17.85908 | 33459 ft | 463 kts | 118° |
| 2026-05-07 09:35 | 48.01326 | 17.90321 | 32818 ft | 464 kts | 118° |
| 2026-05-07 09:35 | 48.00123 | 17.94782 | 32182 ft | 464 kts | 118° |
| 2026-05-07 09:35 | 47.98918 | 17.99250 | 31559 ft | 464 kts | 118° |
| 2026-05-07 09:36 | 47.97710 | 18.03728 | 30940 ft | 465 kts | 117° |
| 2026-05-07 09:36 | 47.96502 | 18.08202 | 30354 ft | 465 kts | 117° |
| 2026-05-07 09:36 | 47.95294 | 18.12666 | 29694 ft | 463 kts | 117° |
| 2026-05-07 09:36 | 47.94094 | 18.17101 | 28980 ft | 459 kts | 117° |
| 2026-05-07 09:37 | 47.92901 | 18.21497 | 28298 ft | 455 kts | 117° |
| 2026-05-07 09:37 | 47.91719 | 18.25839 | 27630 ft | 450 kts | 117° |
| 2026-05-07 09:37 | 47.90542 | 18.30142 | 26974 ft | 446 kts | 117° |
| 2026-05-07 09:37 | 47.89374 | 18.34404 | 26338 ft | 442 kts | 117° |
| 2026-05-07 09:38 | 47.88215 | 18.38627 | 25699 ft | 438 kts | 117° |
| 2026-05-07 09:38 | 47.87045 | 18.42796 | 25097 ft | 432 kts | 120° |
| 2026-05-07 09:38 | 47.85547 | 18.46596 | 24496 ft | 422 kts | 131° |
| 2026-05-07 09:38 | 47.83645 | 18.49850 | 23912 ft | 412 kts | 141° |
| 2026-05-07 09:39 | 47.81435 | 18.52483 | 23290 ft | 403 kts | 150° |
| 2026-05-07 09:39 | 47.79082 | 18.54731 | 22612 ft | 400 kts | 151° |
| 2026-05-07 09:39 | 47.76773 | 18.56931 | 21952 ft | 399 kts | 151° |
| 2026-05-07 09:39 | 47.74437 | 18.59155 | 21301 ft | 397 kts | 151° |
| 2026-05-07 09:40 | 47.72116 | 18.61365 | 20665 ft | 396 kts | 151° |
| 2026-05-07 09:40 | 47.69821 | 18.63598 | 20044 ft | 396 kts | 148° |
| 2026-05-07 09:40 | 47.67747 | 18.66340 | 19429 ft | 401 kts | 136° |
| 2026-05-07 09:40 | 47.65885 | 18.69418 | 18836 ft | 401 kts | 136° |
| 2026-05-07 09:41 | 47.64023 | 18.72493 | 18249 ft | 400 kts | 136° |
| 2026-05-07 09:41 | 47.62160 | 18.75559 | 17572 ft | 401 kts | 136° |
| 2026-05-07 09:41 | 47.60291 | 18.78626 | 16914 ft | 400 kts | 136° |
| 2026-05-07 09:41 | 47.58425 | 18.81683 | 16278 ft | 400 kts | 135° |
| 2026-05-07 09:42 | 47.56611 | 18.84659 | 15666 ft | 399 kts | 135° |
| 2026-05-07 09:42 | 47.55032 | 18.87245 | 15140 ft | 398 kts | 135° |
| 2026-05-07 09:42 | 47.53202 | 18.90239 | 14526 ft | 384 kts | 135° |
| 2026-05-07 09:42 | 47.51441 | 18.93123 | 13931 ft | 369 kts | 135° |
| 2026-05-07 09:43 | 47.49747 | 18.95891 | 13282 ft | 357 kts | 135° |
| 2026-05-07 09:43 | 47.48111 | 18.98565 | 12630 ft | 345 kts | 136° |
| 2026-05-07 09:43 | 47.46522 | 19.01154 | 11991 ft | 335 kts | 135° |
| 2026-05-07 09:43 | 47.44978 | 19.03665 | 11366 ft | 326 kts | 136° |
| 2026-05-07 09:44 | 47.43493 | 19.06078 | 10761 ft | 318 kts | 136° |
| 2026-05-07 09:44 | 47.42022 | 19.08466 | 10158 ft | 311 kts | 136° |
| 2026-05-07 09:44 | 47.40584 | 19.10799 | 9527 ft | 305 kts | 136° |
| 2026-05-07 09:44 | 47.39164 | 19.13097 | 8875 ft | 300 kts | 136° |
| 2026-05-07 09:45 | 47.37759 | 19.15364 | 8234 ft | 299 kts | 136° |
| 2026-05-07 09:45 | 47.36356 | 19.17628 | 7603 ft | 297 kts | 136° |
| 2026-05-07 09:45 | 47.34970 | 19.19867 | 6983 ft | 294 kts | 136° |
| 2026-05-07 09:45 | 47.33604 | 19.22076 | 6372 ft | 289 kts | 136° |
| 2026-05-07 09:46 | 47.32261 | 19.24247 | 5736 ft | 285 kts | 136° |
| 2026-05-07 09:46 | 47.30934 | 19.26388 | 5105 ft | 280 kts | 136° |
| 2026-05-07 09:46 | 47.29626 | 19.28493 | 4467 ft | 277 kts | 136° |
| 2026-05-07 09:46 | 47.28346 | 19.30560 | 4081 ft | 264 kts | 136° |
| 2026-05-07 09:47 | 47.27156 | 19.32483 | 4005 ft | 252 kts | 136° |
| 2026-05-07 09:47 | 47.26000 | 19.34346 | 4008 ft | 242 kts | 136° |
| 2026-05-07 09:47 | 47.24883 | 19.36141 | 3997 ft | 232 kts | 136° |
| 2026-05-07 09:47 | 47.23951 | 19.38037 | 3999 ft | 228 kts | 115° |
| 2026-05-07 09:48 | 47.23677 | 19.40323 | 4000 ft | 230 kts | 86° |
| 2026-05-07 09:48 | 47.24153 | 19.42543 | 4012 ft | 230 kts | 57° |
| 2026-05-07 09:48 | 47.25198 | 19.44218 | 4006 ft | 217 kts | 40° |
| 2026-05-07 09:48 | 47.26297 | 19.45675 | 3997 ft | 210 kts | 40° |
| 2026-05-07 09:49 | 47.27474 | 19.46903 | 3901 ft | 205 kts | 21° |
| 2026-05-07 09:49 | 47.28825 | 19.47463 | 3820 ft | 200 kts | 0° |
| 2026-05-07 09:49 | 47.30192 | 19.47337 | 3682 ft | 195 kts | 340° |
| 2026-05-07 09:49 | 47.31421 | 19.46579 | 3531 ft | 190 kts | 322° |
| 2026-05-07 09:50 | 47.32383 | 19.45325 | 3276 ft | 183 kts | 308° |
| 2026-05-07 09:50 | 47.33242 | 19.43949 | 3036 ft | 182 kts | 308° |
| 2026-05-07 09:50 | 47.34087 | 19.42593 | 2798 ft | 182 kts | 308° |
| 2026-05-07 09:50 | 47.34943 | 19.41218 | 2578 ft | 182 kts | 308° |
| 2026-05-07 09:51 | 47.35797 | 19.39846 | 2330 ft | 181 kts | 308° |
| 2026-05-07 09:51 | 47.36615 | 19.38536 | 2094 ft | 167 kts | 308° |
| 2026-05-07 09:51 | 47.37365 | 19.37332 | 1869 ft | 152 kts | 307° |
| 2026-05-07 09:51 | 47.38062 | 19.36210 | 1671 ft | 146 kts | 307° |
| 2026-05-07 09:52 | 47.38742 | 19.35115 | 1500 ft | 142 kts | 307° |
| 2026-05-07 09:52 | 47.39410 | 19.34037 | 1304 ft | 142 kts | 307° |
| 2026-05-07 09:52 | 47.40080 | 19.32948 | 1088 ft | 145 kts | 309° |
| 2026-05-07 09:52 | 47.40769 | 19.31852 | 847 ft | 146 kts | 310° |
| 2026-05-07 09:53 | 47.41440 | 19.30750 | 720 ft | 143 kts | 307° |
| 2026-05-07 09:53 | 47.42117 | 19.29677 | 555 ft | 142 kts | 306° |
| 2026-05-07 09:53 | 47.42769 | 19.28630 | 458 ft | 133 kts | 307° |
| 2026-05-07 09:53 | 47.43282 | 19.27787 | 463 ft | 86 kts | 313° |
| 2026-05-07 09:54 | 47.43588 | 19.27292 | 471 ft | 50 kts | 312° |
| 2026-05-07 09:54 | 47.43734 | 19.26962 | 471 ft | 36 kts | 289° |
| 2026-05-07 09:54 | 47.43774 | 19.26689 | 470 ft | 29 kts | 282° |
| 2026-05-07 09:54 | 47.43782 | 19.26460 | 467 ft | 19 kts | 233° |
| 2026-05-07 09:55 | 47.43670 | 19.26309 | 469 ft | 21 kts | 222° |
| 2026-05-07 09:55 | 47.43580 | 19.26185 | 469 ft | 18 kts | 225° |
| 2026-05-07 09:55 | 47.43499 | 19.26075 | 469 ft | 12 kts | 222° |
| 2026-05-07 09:55 | 47.43447 | 19.26057 | 469 ft | 8 kts | 137° |
| 2026-05-07 09:56 | 47.43420 | 19.26113 | 469 ft | 4 kts | 129° |
| 2026-05-07 09:56 | 47.43412 | 19.26128 | 469 ft | 1 kts | 131° |
| 2026-05-07 09:56 | 47.43411 | 19.26129 | 469 ft | 0 kts | 131° |